Time;durP1;ratioP1;P1;durP2;ratioP2;P2;SDS_P1;SDS_P2;PMS_P1;PMS_P2;Temp;Humidity;BMP_temperature;BMP_pressure;BME280_temperature;BME280_humidity;BME280_pressure;Samples;Min_cycle;Max_cycle;Signal;HPM_P1;HPM_P2
2023/03/21 00:00:22;;;;;;;6.60;4.10;;;6.50;99.90;;;;;;4958926;28;20035;-80
2023/03/21 00:02:48;;;;;;;7.70;4.30;;;6.50;99.90;;;;;;4957814;28;20031;-80
2023/03/21 00:05:13;;;;;;;6.20;4.30;;;6.50;99.90;;;;;;4957915;28;20027;-80
2023/03/21 00:07:39;;;;;;;8.07;4.10;;;6.50;99.90;;;;;;4957028;28;20046;-80
2023/03/21 00:10:05;;;;;;;5.63;3.93;;;6.50;99.90;;;;;;4957254;28;20054;-81
2023/03/21 00:12:31;;;;;;;5.83;4.20;;;6.50;99.90;;;;;;4957490;28;20429;-81
2023/03/21 00:15:03;;;;;;;8.23;4.50;;;6.50;99.90;;;;;;4957430;28;20023;-81
2023/03/21 00:17:31;;;;;;;7.30;4.20;;;6.50;99.90;;;;;;4956899;28;20030;-81
2023/03/21 00:20:00;;;;;;;8.07;4.30;;;6.50;99.90;;;;;;4957363;28;20027;-81
2023/03/21 00:22:27;;;;;;;6.73;4.13;;;6.50;99.90;;;;;;4956944;28;20113;-81
2023/03/21 00:24:55;;;;;;;7.43;3.97;;;6.50;99.90;;;;;;4957511;28;20022;-81
2023/03/21 00:27:21;;;;;;;10.00;4.37;;;6.60;99.90;;;;;;4956816;28;20043;-80
2023/03/21 00:29:48;;;;;;;6.13;4.30;;;6.50;99.90;;;;;;4955235;28;20037;-81
2023/03/21 00:32:14;;;;;;;7.03;4.40;;;6.60;99.90;;;;;;4956629;28;20097;-80
2023/03/21 00:34:41;;;;;;;6.33;4.60;;;6.60;99.90;;;;;;4956462;28;20027;-81
2023/03/21 00:37:07;;;;;;;8.43;4.40;;;6.60;99.90;;;;;;4956930;28;20808;-81
2023/03/21 00:39:34;;;;;;;7.33;4.37;;;6.60;99.90;;;;;;4956605;28;20026;-81
2023/03/21 00:41:59;;;;;;;6.87;4.67;;;6.60;99.90;;;;;;4956904;28;20035;-80
2023/03/21 00:44:25;;;;;;;7.93;4.27;;;6.60;99.90;;;;;;4956406;28;20027;-81
2023/03/21 00:46:51;;;;;;;4.97;3.83;;;6.70;99.90;;;;;;4956673;28;20134;-80
2023/03/21 00:49:19;;;;;;;6.80;3.90;;;6.70;99.90;;;;;;4956234;28;20026;-81
2023/03/21 00:51:49;;;;;;;8.73;4.40;;;6.70;99.90;;;;;;4956637;28;20131;-81
2023/03/21 00:54:16;;;;;;;6.67;3.83;;;6.70;99.90;;;;;;4956357;28;20038;-80
2023/03/21 00:56:41;;;;;;;7.70;4.17;;;6.70;99.90;;;;;;4956430;28;20027;-81
2023/03/21 00:59:07;;;;;;;9.20;4.50;;;6.70;99.90;;;;;;4955788;28;20031;-81
2023/03/21 01:01:33;;;;;;;5.43;3.97;;;6.70;99.90;;;;;;4956389;28;20514;-81
2023/03/21 01:04:04;;;;;;;5.47;3.73;;;6.80;99.90;;;;;;4956138;28;20030;-81
2023/03/21 01:06:31;;;;;;;5.67;4.27;;;6.80;99.90;;;;;;4956011;28;20033;-81
2023/03/21 01:08:57;;;;;;;5.53;3.73;;;6.80;99.90;;;;;;4955982;28;20670;-80
2023/03/21 01:11:27;;;;;;;6.07;3.90;;;6.80;99.90;;;;;;4954927;28;20036;-80
2023/03/21 01:13:53;;;;;;;5.50;4.17;;;6.80;99.90;;;;;;4955643;28;20200;-81
2023/03/21 01:16:19;;;;;;;10.57;4.10;;;6.80;99.90;;;;;;4956205;28;20027;-81
2023/03/21 01:18:45;;;;;;;7.33;4.03;;;6.80;99.90;;;;;;4955286;28;20030;-81
2023/03/21 01:21:12;;;;;;;7.13;3.97;;;6.90;99.90;;;;;;4954918;28;20031;-81
2023/03/21 01:23:40;;;;;;;7.07;4.30;;;6.90;99.90;;;;;;4955808;28;20121;-81
2023/03/21 01:26:07;;;;;;;6.40;3.83;;;6.90;99.90;;;;;;4956397;28;20585;-80
2023/03/21 01:28:34;;;;;;;6.37;3.40;;;6.90;99.90;;;;;;4955435;28;20038;-81
2023/03/21 01:31:01;;;;;;;6.50;4.00;;;6.90;99.90;;;;;;4956031;28;20137;-81
2023/03/21 01:33:27;;;;;;;6.03;3.70;;;6.90;99.90;;;;;;4955479;28;20782;-81
2023/03/21 01:35:53;;;;;;;5.83;4.00;;;6.90;99.90;;;;;;4954469;28;20034;-81
2023/03/21 01:38:19;;;;;;;8.23;3.80;;;6.90;99.90;;;;;;4954998;28;20107;-81
2023/03/21 01:40:46;;;;;;;9.00;4.87;;;7.00;99.90;;;;;;4955599;28;20035;-81
2023/03/21 01:43:24;;;;;;;8.27;3.67;;;7.00;99.90;;;;;;4955150;28;20038;-80
2023/03/21 01:46:20;;;;;;;5.70;3.83;;;7.00;99.90;;;;;;4955977;28;20062;-81
2023/03/21 01:48:49;;;;;;;6.80;3.55;;;7.00;99.90;;;;;;4955214;28;20082;-80
2023/03/21 01:51:14;;;;;;;5.57;3.80;;;7.00;99.90;;;;;;4955606;28;20035;-80
2023/03/21 01:53:41;;;;;;;7.03;3.93;;;7.00;99.90;;;;;;4955329;28;20050;-80
2023/03/21 01:56:45;;;;;;;5.37;4.03;;;7.00;99.90;;;;;;4955827;28;20026;-81
2023/03/21 01:59:30;;;;;;;6.57;3.90;;;7.00;99.90;;;;;;4932042;29;20087;-80
2023/03/21 02:02:00;;;;;;;6.47;3.78;;;7.00;99.90;;;;;;4954621;28;20042;-81
2023/03/21 02:04:27;;;;;;;6.63;4.20;;;7.00;99.90;;;;;;4955335;28;20035;-80
2023/03/21 02:06:59;;;;;;;5.83;3.73;;;7.00;99.90;;;;;;4955358;28;20039;-81
2023/03/21 02:09:31;;;;;;;6.63;3.77;;;7.00;99.90;;;;;;4954346;28;20023;-81
2023/03/21 02:11:58;;;;;;;8.03;3.80;;;7.00;99.90;;;;;;4955680;28;20027;-80
2023/03/21 02:14:23;;;;;;;6.73;4.37;;;6.90;99.90;;;;;;4954853;28;20109;-81
2023/03/21 02:16:58;;;;;;;5.80;3.80;;;6.90;99.90;;;;;;4955393;28;20027;-81
2023/03/21 02:19:23;;;;;;;4.97;4.03;;;6.90;99.90;;;;;;4954948;28;21471;-80
2023/03/21 02:22:14;;;;;;;7.50;4.63;;;6.80;99.90;;;;;;4955282;28;20027;-81
2023/03/21 02:25:12;;;;;;;7.40;4.80;;;6.80;99.90;;;;;;4950423;28;20071;-81
2023/03/21 02:27:49;;;;;;;6.40;4.40;;;6.90;99.90;;;;;;4954607;28;20695;-81
2023/03/21 02:30:37;;;;;;;7.60;4.87;;;6.80;99.90;;;;;;4954870;28;20057;-81
2023/03/21 02:33:50;;;;;;;6.53;4.03;;;6.80;99.90;;;;;;4954471;28;20026;-81
2023/03/21 02:36:29;;;;;;;7.57;4.97;;;6.80;99.90;;;;;;4932561;29;20031;-81
2023/03/21 02:39:23;;;;;;;5.00;4.00;;;6.80;99.90;;;;;;4954119;28;20031;-81
2023/03/21 02:42:12;;;;;;;7.23;4.53;;;6.80;99.90;;;;;;4955153;28;20031;-81
2023/03/21 02:45:17;;;;;;;7.97;3.90;;;6.80;99.90;;;;;;4955225;28;20026;-80
2023/03/21 02:47:51;;;;;;;5.67;4.03;;;6.80;99.90;;;;;;4954292;28;20097;-81
2023/03/21 02:50:29;;;;;;;9.20;4.00;;;6.80;99.90;;;;;;4954787;28;20035;-81
2023/03/21 02:52:56;;;;;;;7.27;3.97;;;6.80;99.90;;;;;;4954188;28;21474;-81
2023/03/21 02:55:25;;;;;;;9.30;4.37;;;6.80;99.90;;;;;;4955429;28;20394;-81
2023/03/21 02:57:54;;;;;;;8.83;4.10;;;6.80;99.90;;;;;;4954370;28;20402;-81
2023/03/21 03:00:24;;;;;;;5.60;3.93;;;6.70;99.90;;;;;;4954961;28;20482;-80
2023/03/21 03:02:50;;;;;;;6.27;3.73;;;6.70;99.90;;;;;;4954002;28;20113;-81
2023/03/21 03:05:20;;;;;;;11.50;4.07;;;6.70;99.90;;;;;;4955042;28;20045;-81
2023/03/21 03:08:02;;;;;;;5.27;3.53;;;6.70;99.90;;;;;;4954263;28;20042;-81
2023/03/21 03:10:40;;;;;;;5.10;3.30;;;6.70;99.90;;;;;;4954645;28;20030;-81
2023/03/21 03:13:25;;;;;;;5.43;3.47;;;6.70;99.90;;;;;;4954045;28;20031;-81
2023/03/21 03:16:35;;;;;;;6.47;4.07;;;6.70;99.90;;;;;;4955146;28;20031;-81
2023/03/21 03:19:05;;;;;;;4.80;3.57;;;6.70;99.90;;;;;;4954312;28;20118;-80
2023/03/21 03:21:57;;;;;;;8.40;3.80;;;6.70;99.90;;;;;;4956777;28;20793;-81
2023/03/21 03:24:56;;;;;;;5.13;3.53;;;6.70;99.90;;;;;;4957817;28;20035;-81
2023/03/21 03:27:31;;;;;;;6.50;4.57;;;6.70;99.90;;;;;;4938111;28;20042;-81
2023/03/21 03:29:59;;;;;;;5.65;3.97;;;6.70;99.90;;;;;;4957145;28;20566;-81
2023/03/21 03:32:35;;;;;;;5.13;3.90;;;6.70;99.90;;;;;;4957622;28;20535;-81
2023/03/21 03:35:04;;;;;;;5.03;3.93;;;6.70;99.90;;;;;;4958285;28;20026;-81
2023/03/21 03:37:33;;;;;;;6.33;3.80;;;6.70;99.90;;;;;;4957891;28;20062;-81
2023/03/21 03:40:16;;;;;;;4.20;3.57;;;6.70;99.90;;;;;;4957901;28;20039;-81
2023/03/21 03:42:53;;;;;;;8.10;4.30;;;6.70;99.90;;;;;;4957451;28;20106;-81
2023/03/21 03:45:28;;;;;;;7.13;4.13;;;6.70;99.90;;;;;;4956982;28;20443;-81
2023/03/21 03:48:04;;;;;;;11.60;4.38;;;6.70;99.90;;;;;;4957713;28;20516;-81
2023/03/21 03:50:41;;;;;;;10.53;4.33;;;6.70;99.90;;;;;;4958026;28;21108;-81
2023/03/21 03:53:11;;;;;;;6.47;3.90;;;6.70;99.90;;;;;;4958058;28;20023;-81
2023/03/21 03:55:37;;;;;;;8.13;3.90;;;6.70;99.90;;;;;;4959053;28;20076;-81
2023/03/21 03:58:03;;;;;;;7.73;4.50;;;6.70;99.90;;;;;;4959999;28;20031;-80
2023/03/21 04:00:32;;;;;;;7.57;4.53;;;6.60;99.90;;;;;;4964020;28;20442;-80
2023/03/21 04:02:58;;;;;;;6.37;4.30;;;6.60;99.90;;;;;;4957468;28;20027;-81
2023/03/21 04:05:24;;;;;;;6.17;4.53;;;6.70;99.90;;;;;;4957385;28;20094;-81
2023/03/21 04:07:49;;;;;;;5.17;4.37;;;6.60;99.90;;;;;;4957982;28;20679;-81
2023/03/21 04:10:15;;;;;;;7.17;4.00;;;6.60;99.90;;;;;;4957912;28;20031;-80
2023/03/21 04:12:41;;;;;;;6.17;4.70;;;6.60;99.90;;;;;;4957518;28;20046;-81
2023/03/21 04:15:07;;;;;;;9.47;4.77;;;6.60;99.90;;;;;;4957757;28;20027;-80
2023/03/21 04:17:33;;;;;;;8.83;4.70;;;6.60;99.90;;;;;;4946334;28;20038;-81
2023/03/21 04:19:58;;;;;;;6.57;4.23;;;6.60;99.90;;;;;;4957447;28;20027;-81
2023/03/21 04:22:24;;;;;;;7.50;4.60;;;6.60;99.90;;;;;;4957072;28;20053;-80
2023/03/21 04:24:50;;;;;;;6.07;4.50;;;6.60;99.90;;;;;;4957146;28;20101;-80
2023/03/21 04:27:15;;;;;;;7.13;4.77;;;6.60;99.90;;;;;;4957243;28;20046;-81
2023/03/21 04:29:41;;;;;;;6.40;4.73;;;6.60;99.90;;;;;;4956986;28;20027;-81
2023/03/21 04:32:15;;;;;;;7.20;4.90;;;6.60;99.90;;;;;;4956006;28;20674;-81
2023/03/21 04:34:42;;;;;;;7.40;4.63;;;6.60;99.90;;;;;;4957277;28;20031;-81
2023/03/21 04:37:10;;;;;;;8.87;4.57;;;6.60;99.90;;;;;;4957152;28;20133;-81
2023/03/21 04:39:37;;;;;;;7.83;4.70;;;6.50;99.90;;;;;;4955298;28;20126;-81
2023/03/21 04:42:03;;;;;;;6.37;4.77;;;6.60;99.90;;;;;;4957145;28;20039;-80
2023/03/21 04:44:29;;;;;;;8.30;4.90;;;6.60;99.90;;;;;;4956760;28;20105;-81
2023/03/21 04:46:54;;;;;;;7.40;4.60;;;6.60;99.90;;;;;;4956915;28;20483;-81
2023/03/21 04:49:20;;;;;;;6.53;4.50;;;6.60;99.90;;;;;;4956171;28;20035;-81
2023/03/21 04:51:46;;;;;;;7.63;5.10;;;6.60;99.90;;;;;;4956892;28;20101;-81
2023/03/21 04:54:12;;;;;;;6.03;4.50;;;6.50;99.90;;;;;;4956426;28;20480;-81
2023/03/21 04:56:38;;;;;;;7.90;4.70;;;6.50;99.90;;;;;;4956715;28;20038;-81
2023/03/21 04:59:13;;;;;;;6.57;4.60;;;6.60;99.90;;;;;;4955916;28;20493;-81
2023/03/21 05:01:42;;;;;;;9.40;4.40;;;6.60;99.90;;;;;;4956802;28;20038;-81
2023/03/21 05:04:09;;;;;;;10.63;4.47;;;6.50;99.90;;;;;;4956561;28;20034;-80
2023/03/21 05:06:35;;;;;;;9.43;4.70;;;6.50;99.90;;;;;;4954805;28;20489;-81
2023/03/21 05:09:05;;;;;;;9.07;4.57;;;6.50;99.90;;;;;;4956033;28;20081;-81
2023/03/21 05:11:36;;;;;;;7.33;4.53;;;6.50;99.90;;;;;;4956511;28;20030;-80
2023/03/21 05:14:05;;;;;;;8.47;4.80;;;6.50;99.90;;;;;;4956386;28;20130;-81
2023/03/21 05:16:33;;;;;;;5.87;4.37;;;6.50;99.90;;;;;;4954471;28;20833;-81
2023/03/21 05:19:03;;;;;;;7.70;4.27;;;6.50;99.90;;;;;;4956713;28;20058;-91
2023/03/21 05:21:40;;;;;;;5.83;4.37;;;6.50;99.90;;;;;;4958584;28;20402;-89
2023/03/21 05:24:10;;;;;;;8.07;4.37;;;6.50;99.90;;;;;;4976703;28;20043;-90
2023/03/21 05:26:37;;;;;;;5.90;4.60;;;6.40;99.90;;;;;;4957933;28;20434;-91
2023/03/21 05:29:03;;;;;;;7.07;4.03;;;6.50;99.90;;;;;;4957425;28;20534;-90
2023/03/21 05:31:29;;;;;;;6.00;4.67;;;6.40;99.90;;;;;;4958423;28;20047;-90
2023/03/21 05:33:54;;;;;;;5.73;4.13;;;6.50;99.90;;;;;;4958252;28;20092;-90
2023/03/21 05:36:20;;;;;;;6.10;4.37;;;6.40;99.90;;;;;;4958392;28;20058;-91
2023/03/21 05:38:46;;;;;;;6.97;4.50;;;6.50;99.90;;;;;;4957944;28;20559;-90
2023/03/21 05:41:13;;;;;;;11.40;4.77;;;6.50;99.90;;;;;;4956033;28;20042;-91
2023/03/21 05:43:39;;;;;;;11.37;4.60;;;6.50;99.90;;;;;;4957062;28;20149;-91
2023/03/21 05:46:05;;;;;;;5.57;4.47;;;6.50;99.90;;;;;;4958280;28;20449;-91
2023/03/21 05:48:30;;;;;;;6.50;4.70;;;6.50;99.90;;;;;;4957424;28;20030;-91
2023/03/21 05:51:00;;;;;;;6.60;4.37;;;6.60;99.90;;;;;;4957233;28;20111;-90
2023/03/21 05:53:26;;;;;;;8.17;4.97;;;6.60;99.90;;;;;;4957162;28;20015;-90
2023/03/21 05:55:52;;;;;;;7.93;4.60;;;6.60;99.90;;;;;;4957570;28;20323;-90
2023/03/21 05:58:25;;;;;;;6.87;4.30;;;6.70;99.90;;;;;;4956603;28;20100;-91
2023/03/21 06:00:59;;;;;;;9.33;4.20;;;6.70;99.90;;;;;;4957128;28;20037;-92
2023/03/21 06:03:25;;;;;;;7.28;4.30;;;6.70;99.90;;;;;;4956677;28;20039;-90
2023/03/21 06:05:50;;;;;;;11.53;4.87;;;6.80;99.90;;;;;;4958540;28;20034;-92
2023/03/21 06:08:16;;;;;;;7.63;4.70;;;6.80;99.90;;;;;;4955775;28;20031;-91
2023/03/21 06:10:42;;;;;;;9.87;4.80;;;6.80;99.90;;;;;;4956975;28;20023;-90
2023/03/21 06:13:07;;;;;;;6.77;4.50;;;6.90;99.90;;;;;;4957660;28;21440;-90
2023/03/21 06:15:33;;;;;;;6.73;4.70;;;7.00;99.90;;;;;;4957977;28;20031;-91
2023/03/21 06:17:58;;;;;;;9.67;5.03;;;7.00;99.90;;;;;;4956979;28;20035;-91
2023/03/21 06:20:24;;;;;;;7.63;4.97;;;7.00;99.90;;;;;;4961285;28;20058;-91
2023/03/21 06:22:49;;;;;;;11.90;5.17;;;7.10;99.90;;;;;;4957210;28;20379;-91
2023/03/21 06:25:15;;;;;;;7.00;4.50;;;7.10;99.90;;;;;;4957568;28;20039;-90
2023/03/21 06:27:41;;;;;;;6.47;4.80;;;7.20;99.90;;;;;;4956768;28;20140;-90
2023/03/21 06:30:07;;;;;;;8.03;4.63;;;7.20;99.90;;;;;;4956076;28;20055;-90
2023/03/21 06:32:33;;;;;;;10.50;6.00;;;7.20;99.90;;;;;;4958515;28;20454;-90
2023/03/21 06:34:59;;;;;;;7.20;4.70;;;7.30;99.90;;;;;;4958584;28;20031;-91
2023/03/21 06:37:25;;;;;;;9.17;4.87;;;7.30;99.90;;;;;;4957446;28;20019;-90
2023/03/21 06:39:51;;;;;;;7.97;5.13;;;7.40;99.90;;;;;;4958497;28;20045;-90
2023/03/21 06:42:17;;;;;;;6.23;4.23;;;7.40;99.90;;;;;;4961641;28;20035;-91
2023/03/21 06:44:42;;;;;;;7.07;4.63;;;7.40;99.90;;;;;;4960648;28;20125;-90
2023/03/21 06:47:08;;;;;;;9.97;4.60;;;7.50;99.90;;;;;;4959919;28;20066;-91
2023/03/21 06:49:34;;;;;;;6.17;4.47;;;7.50;99.90;;;;;;4964863;28;20118;-91
2023/03/21 06:51:59;;;;;;;11.13;4.60;;;7.60;99.90;;;;;;4963838;28;20474;-90
2023/03/21 06:54:25;;;;;;;5.47;4.03;;;7.60;99.90;;;;;;4960002;28;20042;-90
2023/03/21 06:56:51;;;;;;;7.17;4.47;;;7.70;99.90;;;;;;4962822;28;20915;-89
2023/03/21 06:59:16;;;;;;;8.93;4.60;;;7.70;99.90;;;;;;4964726;28;20434;-90
2023/03/21 07:01:42;;;;;;;10.13;4.60;;;7.80;99.90;;;;;;4965631;28;20101;-90
2023/03/21 07:04:08;;;;;;;8.20;4.50;;;7.90;99.90;;;;;;4964018;28;20038;-91
2023/03/21 07:06:34;;;;;;;6.87;4.30;;;7.90;99.90;;;;;;4965795;28;20113;-91
2023/03/21 07:09:01;;;;;;;8.93;5.20;;;8.00;99.90;;;;;;4964755;28;20038;-90
2023/03/21 07:11:27;;;;;;;8.90;4.73;;;8.00;99.90;;;;;;4965770;28;20051;-90
2023/03/21 07:13:53;;;;;;;10.00;4.80;;;8.10;99.90;;;;;;4963928;28;20027;-90
2023/03/21 07:16:20;;;;;;;5.93;4.60;;;8.20;99.90;;;;;;4965080;28;20076;-90
2023/03/21 07:18:47;;;;;;;6.87;4.60;;;8.20;99.90;;;;;;4960738;28;20472;-90
2023/03/21 07:21:13;;;;;;;9.27;4.37;;;8.30;99.90;;;;;;4960775;28;20030;-90
2023/03/21 07:23:39;;;;;;;8.13;4.90;;;8.40;99.90;;;;;;4959549;28;20023;-90
2023/03/21 07:26:05;;;;;;;9.80;5.10;;;8.50;99.90;;;;;;4960289;28;20034;-89
2023/03/21 07:28:31;;;;;;;7.93;4.93;;;8.50;99.90;;;;;;4959480;28;20043;-89
2023/03/21 07:31:01;;;;;;;6.17;5.10;;;8.60;99.90;;;;;;4959346;28;20099;-88
2023/03/21 07:33:29;;;;;;;8.63;5.50;;;8.70;99.90;;;;;;4957977;28;20058;-90
2023/03/21 07:35:56;;;;;;;5.27;4.30;;;8.70;99.90;;;;;;4954691;28;20027;-89
2023/03/21 07:38:22;;;;;;;7.57;4.67;;;8.80;99.90;;;;;;4959256;28;20054;-89
2023/03/21 07:40:48;;;;;;;6.97;4.70;;;8.90;99.90;;;;;;4957567;28;20174;-90
2023/03/21 07:43:14;;;;;;;8.50;4.50;;;8.90;99.90;;;;;;4956656;28;20023;-90
2023/03/21 07:45:41;;;;;;;5.70;4.20;;;8.90;99.90;;;;;;4954974;28;20030;-90
2023/03/21 07:48:07;;;;;;;7.50;3.57;;;9.00;99.90;;;;;;4955785;28;20043;-90
2023/03/21 07:50:33;;;;;;;5.40;4.17;;;9.10;99.90;;;;;;4958205;28;20062;-91
2023/03/21 07:53:01;;;;;;;5.87;4.20;;;9.10;99.90;;;;;;4953872;28;20130;-90
2023/03/21 07:55:27;;;;;;;6.03;4.40;;;9.20;99.90;;;;;;4957225;28;20039;-90
2023/03/21 07:57:52;;;;;;;6.37;4.33;;;9.20;99.90;;;;;;4954685;28;20038;-90
2023/03/21 08:00:21;;;;;;;11.43;5.40;;;9.30;99.90;;;;;;4973623;28;20058;-90
2023/03/21 08:02:53;;;;;;;8.43;5.03;;;9.30;99.90;;;;;;4953597;28;20030;-91
2023/03/21 08:05:22;;;;;;;7.20;5.60;;;9.30;99.90;;;;;;4955635;28;20031;-89
2023/03/21 08:07:49;;;;;;;10.37;4.63;;;9.40;99.90;;;;;;4952780;28;20043;-89
2023/03/21 08:10:15;;;;;;;6.87;4.43;;;9.50;99.90;;;;;;4972726;28;20034;-90
2023/03/21 08:12:40;;;;;;;5.83;4.30;;;9.60;99.90;;;;;;4953447;28;20042;-89
2023/03/21 08:15:07;;;;;;;9.43;4.17;;;9.60;99.90;;;;;;4954044;28;20039;-90
2023/03/21 08:17:35;;;;;;;8.40;3.93;;;9.70;99.90;;;;;;4954530;28;21324;-89
2023/03/21 08:20:00;;;;;;;6.10;4.60;;;9.80;99.90;;;;;;4955557;28;21108;-89
2023/03/21 08:22:26;;;;;;;5.57;4.45;;;9.90;99.90;;;;;;4954852;28;20071;-91
2023/03/21 08:24:51;;;;;;;6.85;4.32;;;9.90;99.90;;;;;;4955611;28;20035;-89
2023/03/21 08:27:18;;;;;;;6.50;4.40;;;10.00;99.90;;;;;;4954461;28;20035;-90
2023/03/21 08:29:43;;;;;;;9.20;4.55;;;10.10;99.90;;;;;;4971073;28;21501;-90
2023/03/21 08:32:09;;;;;;;10.15;4.60;;;10.20;99.90;;;;;;4962178;28;20023;-92
2023/03/21 08:34:35;;;;;;;8.20;4.90;;;10.20;99.90;;;;;;4960471;28;20052;-91
2023/03/21 08:37:01;;;;;;;5.97;4.40;;;10.30;99.90;;;;;;4954778;28;20384;-91
2023/03/21 08:39:27;;;;;;;6.60;3.75;;;10.40;99.90;;;;;;4953742;28;20780;-90
2023/03/21 08:41:52;;;;;;;8.32;4.50;;;10.50;99.90;;;;;;4952844;28;20031;-90
2023/03/21 08:44:19;;;;;;;7.80;4.63;;;10.50;99.90;;;;;;4954726;28;20146;-90
2023/03/21 08:46:44;;;;;;;7.60;4.53;;;10.60;99.90;;;;;;4956179;28;20069;-91
2023/03/21 08:49:11;;;;;;;7.25;4.57;;;10.70;99.90;;;;;;4956080;28;20114;-91
2023/03/21 08:51:36;;;;;;;7.20;4.70;;;10.70;99.90;;;;;;4953035;28;20133;-91
2023/03/21 08:54:02;;;;;;;6.00;4.50;;;10.80;99.90;;;;;;4955686;28;20126;-91
2023/03/21 08:56:28;;;;;;;6.47;4.30;;;10.90;99.90;;;;;;4965283;28;20034;-91
2023/03/21 08:58:53;;;;;;;6.35;4.22;;;11.00;99.90;;;;;;4952117;28;20031;-91
2023/03/21 09:01:19;;;;;;;7.55;3.83;;;11.20;99.90;;;;;;4950694;28;20062;-91
2023/03/21 09:03:44;;;;;;;8.77;4.13;;;11.20;99.90;;;;;;4947825;28;20050;-91
2023/03/21 09:06:13;;;;;;;11.35;5.05;;;11.20;99.90;;;;;;4951974;28;20038;-91
2023/03/21 09:08:40;;;;;;;6.68;3.53;;;11.30;99.90;;;;;;4951340;28;20747;-92
2023/03/21 09:11:09;;;;;;;4.47;2.42;;;11.40;99.90;;;;;;4948559;28;20035;-91
2023/03/21 09:13:35;;;;;;;4.93;2.63;;;11.50;99.90;;;;;;4948423;28;20039;-90
2023/03/21 09:16:01;;;;;;;4.60;3.00;;;11.60;99.90;;;;;;4952017;28;20804;-90
2023/03/21 09:18:48;;;;;;;5.65;2.80;;;11.70;99.90;;;;;;4953270;28;20049;-92
2023/03/21 09:21:19;;;;;;;5.75;2.90;;;11.80;99.90;;;;;;4954051;28;20594;-91
2023/03/21 09:23:45;;;;;;;5.05;3.40;;;11.90;99.90;;;;;;4953810;28;20027;-91
2023/03/21 09:26:12;;;;;;;6.75;4.00;;;12.10;99.90;;;;;;4955174;28;20037;-91
2023/03/21 09:28:39;;;;;;;8.30;3.92;;;12.10;99.90;;;;;;4954637;28;20042;-91
2023/03/21 09:31:11;;;;;;;6.85;3.63;;;12.20;99.90;;;;;;4953788;28;20068;-91
2023/03/21 09:33:39;;;;;;;7.10;3.70;;;12.30;99.90;;;;;;4954571;28;20038;-91
2023/03/21 09:36:10;;;;;;;6.78;3.65;;;12.40;99.90;;;;;;4954491;28;21026;-92
2023/03/21 09:38:38;;;;;;;12.20;4.00;;;12.60;99.90;;;;;;4955020;28;20027;-91
2023/03/21 09:41:39;;;;;;;9.10;4.00;;;12.70;99.90;;;;;;4954603;28;20034;-92
2023/03/21 09:44:23;;;;;;;4.90;3.40;;;12.70;99.90;;;;;;4944724;28;20118;-92
2023/03/21 09:47:20;;;;;;;5.75;3.60;;;12.70;99.90;;;;;;4954734;28;20481;-92
2023/03/21 09:49:53;;;;;;;9.48;3.85;;;12.80;99.90;;;;;;4955393;28;20049;-91
2023/03/21 09:52:25;;;;;;;8.07;3.67;;;12.80;99.90;;;;;;4952127;28;20820;-91
2023/03/21 09:54:52;;;;;;;6.55;3.10;;;12.80;99.90;;;;;;4954128;28;20031;-91
2023/03/21 09:57:36;;;;;;;8.35;3.70;;;13.00;99.90;;;;;;4954267;28;20033;-91
2023/03/21 10:00:08;;;;;;;10.18;3.90;;;13.00;99.90;;;;;;4955733;28;20093;-92
2023/03/21 10:02:37;;;;;;;5.63;3.88;;;13.10;99.90;;;;;;4952942;28;20034;-92
2023/03/21 10:05:13;;;;;;;6.60;3.70;;;13.20;99.90;;;;;;4955901;28;20787;-92
2023/03/21 10:07:43;;;;;;;21.60;12.23;;;13.30;99.90;;;;;;4954101;28;20062;-91
2023/03/21 10:10:16;;;;;;;5.60;4.07;;;13.30;99.90;;;;;;4954810;28;20054;-91
2023/03/21 10:12:44;;;;;;;6.20;3.58;;;13.50;99.90;;;;;;4952643;28;20117;-90
2023/03/21 10:15:15;;;;;;;4.85;3.30;;;13.50;99.90;;;;;;4952559;28;20089;-91
2023/03/21 10:17:59;;;;;;;4.45;3.00;;;13.70;99.90;;;;;;4951262;28;20034;-90
2023/03/21 10:20:34;;;;;;;5.03;3.08;;;13.80;99.90;;;;;;4953375;28;20074;-91
2023/03/21 10:23:05;;;;;;;5.43;3.65;;;13.90;99.90;;;;;;4954274;28;20035;-91
2023/03/21 10:25:36;;;;;;;6.38;3.38;;;13.90;99.90;;;;;;4953027;28;20081;-91
2023/03/21 10:28:04;;;;;;;7.22;4.15;;;14.00;99.90;;;;;;4952187;28;21020;-92
2023/03/21 10:30:55;;;;;;;4.65;3.20;;;14.20;99.90;;;;;;4953864;28;20415;-90
2023/03/21 10:33:37;;;;;;;4.50;3.08;;;14.30;99.90;;;;;;4954415;28;20117;-91
2023/03/21 10:36:10;;;;;;;5.15;3.22;;;14.20;99.90;;;;;;4956829;28;20031;-91
2023/03/21 10:38:39;;;;;;;6.20;3.55;;;14.20;99.90;;;;;;4957613;28;20057;-92
2023/03/21 10:41:05;;;;;;;5.63;3.05;;;14.20;99.90;;;;;;4954087;28;20169;-92
2023/03/21 10:43:36;;;;;;;4.65;3.03;;;14.20;99.90;;;;;;4955084;28;20041;-91
2023/03/21 10:46:07;;;;;;;5.20;3.22;;;14.20;99.90;;;;;;4962374;28;20030;-94
2023/03/21 10:48:36;;;;;;;4.30;3.13;;;14.20;99.90;;;;;;4959815;28;20050;-91
2023/03/21 10:51:04;;;;;;;4.85;3.25;;;14.30;99.90;;;;;;4961998;28;20038;-91
2023/03/21 10:53:37;;;;;;;6.70;3.03;;;14.20;99.90;;;;;;4961676;28;20038;-92
2023/03/21 10:56:09;;;;;;;4.07;2.65;;;14.40;99.90;;;;;;4964241;28;20568;-91
2023/03/21 10:58:41;;;;;;;3.00;2.28;;;14.40;99.90;;;;;;4964537;28;20030;-91
2023/03/21 11:01:13;;;;;;;6.22;3.25;;;14.60;99.90;;;;;;4965024;28;20045;-92
2023/03/21 11:03:45;;;;;;;3.88;2.45;;;14.80;99.90;;;;;;4965862;28;20030;-91
2023/03/21 11:06:35;;;;;;;3.45;2.22;;;14.80;99.90;;;;;;4961940;28;20114;-90
2023/03/21 11:09:06;;;;;;;8.00;2.67;;;15.00;99.90;;;;;;4961306;28;20038;-91
2023/03/21 11:11:38;;;;;;;5.20;3.30;;;15.00;99.90;;;;;;4960702;28;20030;-91
2023/03/21 11:14:08;;;;;;;4.25;2.85;;;14.90;99.90;;;;;;4963939;28;20762;-91
2023/03/21 11:16:40;;;;;;;4.72;3.30;;;15.00;99.90;;;;;;4962284;28;20086;-91
2023/03/21 11:19:15;;;;;;;4.13;2.88;;;15.10;99.90;;;;;;4963766;28;20024;-92
2023/03/21 11:21:41;;;;;;;;;;;15.20;99.90;;;;;;4963142;28;20085;-92
2023/03/21 11:24:12;;;;;;;6.50;4.00;;;15.40;99.90;;;;;;4958103;28;19919;-93
2023/03/21 11:26:42;;;;;;;5.53;3.63;;;15.40;99.90;;;;;;4958670;28;20037;-92
2023/03/21 11:29:19;;;;;;;4.70;3.50;;;15.60;99.90;;;;;;4957322;28;20114;-92
2023/03/21 11:31:45;;;;;;;4.43;3.45;;;15.70;99.90;;;;;;4959119;28;21093;-92
2023/03/21 11:34:39;;;;;;;5.93;3.50;;;15.80;99.90;;;;;;4961082;28;20031;-93
2023/03/21 11:37:05;;;;;;;4.30;3.42;;;16.10;99.90;;;;;;4958212;28;20023;-93
2023/03/21 11:39:36;;;;;;;4.10;3.30;;;16.30;99.90;;;;;;4961517;28;20027;-92
2023/03/21 11:42:01;;;;;;;6.50;3.50;;;16.70;99.90;;;;;;4964298;28;20029;-92
2023/03/21 11:44:44;;;;;;;4.15;3.60;;;16.80;99.90;;;;;;4964266;28;20034;-92
2023/03/21 11:47:10;;;;;;;4.68;3.25;;;17.20;99.90;;;;;;4958698;28;20122;-93
2023/03/21 11:49:35;;;;;;;5.53;3.20;;;17.30;99.90;;;;;;4963942;28;20039;-93
2023/03/21 11:52:24;;;;;;;4.70;3.40;;;17.50;99.90;;;;;;4961458;28;20053;-93
2023/03/21 11:55:00;;;;;;;4.22;3.22;;;17.60;99.90;;;;;;4961579;28;20030;-92
2023/03/21 11:57:43;;;;;;;4.88;3.20;;;17.70;99.90;;;;;;4960837;28;20199;-92
2023/03/21 12:00:24;;;;;;;5.07;3.47;;;17.80;99.90;;;;;;4962387;28;20042;-91
2023/03/21 12:03:21;;;;;;;5.38;3.53;;;18.00;99.90;;;;;;4962121;28;20038;-91
2023/03/21 12:05:59;;;;;;;5.10;3.30;;;18.20;99.90;;;;;;4961355;28;20031;-93
2023/03/21 12:08:53;;;;;;;5.25;3.67;;;18.30;99.90;;;;;;4963908;28;20066;-92
2023/03/21 12:11:47;;;;;;;6.22;3.33;;;18.60;99.90;;;;;;4967598;28;20023;-92
2023/03/21 12:14:31;;;;;;;8.40;3.30;;;18.70;99.90;;;;;;4982702;28;20058;-92
2023/03/21 12:17:12;;;;;;;7.18;3.45;;;18.90;99.90;;;;;;4966850;28;20113;-93
2023/03/21 12:20:12;;;;;;;6.35;3.40;;;18.90;99.90;;;;;;4964249;28;20038;-92
2023/03/21 12:22:59;;;;;;;6.70;3.15;;;18.90;99.90;;;;;;4963613;28;20170;-93
2023/03/21 12:25:38;;;;;;;4.53;3.22;;;19.00;99.90;;;;;;4965114;28;20517;-91
2023/03/21 12:28:15;;;;;;;4.88;3.10;;;18.40;99.90;;;;;;4961842;28;20034;-91
2023/03/21 12:31:00;;;;;;;5.63;3.40;;;18.40;99.90;;;;;;4961907;28;20062;-92
2023/03/21 12:33:38;;;;;;;4.95;3.70;;;18.10;99.90;;;;;;4962555;28;20030;-91
2023/03/21 12:36:36;;;;;;;4.38;2.78;;;17.70;99.90;;;;;;4963440;28;20031;-92
2023/03/21 12:39:50;;;;;;;5.95;2.90;;;17.70;99.90;;;;;;4961570;28;20106;-91
2023/03/21 12:42:35;;;;;;;3.50;2.72;;;17.60;99.90;;;;;;4954831;28;20046;-91
2023/03/21 12:45:11;;;;;;;;;;;17.40;99.90;;;;;;4968064;28;20035;-92
2023/03/21 12:47:41;;;;;;;5.22;2.80;;;17.30;99.90;;;;;;4963481;28;19915;-93
2023/03/21 12:50:49;;;;;;;5.25;2.65;;;17.10;99.90;;;;;;4967093;28;20034;-92
2023/03/21 12:53:44;;;;;;;5.18;3.13;;;17.20;99.90;;;;;;4928654;29;20051;-92
2023/03/21 12:56:14;;;;;;;5.75;3.42;;;17.20;99.90;;;;;;4924938;29;20554;-92
2023/03/21 12:58:53;;;;;;;5.25;3.55;;;17.30;99.90;;;;;;4955506;28;20153;-91
2023/03/21 13:01:21;;;;;;;6.05;3.25;;;17.40;99.90;;;;;;4963138;28;21355;-93
2023/03/21 13:04:04;;;;;;;3.78;3.20;;;17.40;99.90;;;;;;4962604;28;21108;-92
2023/03/21 13:06:30;;;;;;;4.43;2.97;;;17.40;99.90;;;;;;4962370;28;20035;-92
2023/03/21 13:09:05;;;;;;;4.25;3.20;;;17.40;99.90;;;;;;4962979;28;20034;-92
2023/03/21 13:11:32;;;;;;;5.00;2.42;;;17.50;99.90;;;;;;4964201;28;20034;-92
2023/03/21 13:14:26;;;;;;;5.63;3.15;;;17.50;99.90;;;;;;4963603;28;20038;-92